Hauptseite
METAR-TAF:

METAR-TAF

Flughäfen :

Militärflugplatz Alpnach

Alpnach, Schweiz

Breite: 46-56-19N, Länge: 8-17-03E, Höhe: 440 m

Beobachtung

Neuester Wetterbericht von vor 1 Stunde und 12 Minuten, um 05:50 UTC
Wind 3 kt aus Ost/Nordost, variierte zwischen Nord und Ost
Temperatur 2°C
Luftfeuchtigkeit 93%
Luftdruck 1003 hPa
Sichtweite 10 km oder mehr
Durchbrochene Bewölkung in der Höhe von 6600 ft
Geschlossene Wolkendecke in der Höhe von 15000 ft

METAR: LSMA 260550Z AUTO 06003KT 010V090 9999NDV BKN066 OVC150 02/01 Q1003 RMK

Zeit: 08:02 (07:02 UTC)


TAF: fehlend

Wetterbeobachtungen und Prognosen von mehr als 4000 Flughäfen (METAR und TAF Bericht).

Die verfügbaren Stationen werden durch gelbe und rote Markierungen auf der Karte dargestellt.

Führen Sie die Maus auf sie, um den Namen der Station zu sehen.

Darauf klicken, um die Beobachtung von Wetterbeobachtungen und Prognosen zu sehen.

Um die Karte zu ändern : klicken Sie auf den grünen Tasten mit einem schwarzen Kreuz Zum Vergrößern, auf den grünen Button mit einem Gedankenstrich zu verkleinern, oder auf die grünen Pfeile für benachbarte Karten.


METAR-TAF: